sensor_id;sensor_type;location;lat;lon;timestamp;P1;durP1;ratioP1;P2;durP2;ratioP2
22929;SDS011;11630;42.660;23.292;2023-03-01T00:01:29;5.43;;;4.90;;
22929;SDS011;11630;42.660;23.292;2023-03-01T00:04:00;5.90;;;5.13;;
22929;SDS011;11630;42.660;23.292;2023-03-01T00:06:31;6.40;;;5.30;;
22929;SDS011;11630;42.660;23.292;2023-03-01T00:09:02;5.50;;;4.97;;
22929;SDS011;11630;42.660;23.292;2023-03-01T00:11:32;7.10;;;5.60;;
22929;SDS011;11630;42.660;23.292;2023-03-01T00:14:03;5.17;;;4.67;;
22929;SDS011;11630;42.660;23.292;2023-03-01T00:16:40;5.60;;;4.83;;
22929;SDS011;11630;42.660;23.292;2023-03-01T00:19:13;4.97;;;4.47;;
22929;SDS011;11630;42.660;23.292;2023-03-01T00:21:46;6.03;;;4.73;;
22929;SDS011;11630;42.660;23.292;2023-03-01T00:24:16;5.73;;;4.30;;
22929;SDS011;11630;42.660;23.292;2023-03-01T00:26:46;4.90;;;4.40;;
22929;SDS011;11630;42.660;23.292;2023-03-01T00:29:18;4.93;;;4.43;;
22929;SDS011;11630;42.660;23.292;2023-03-01T00:31:49;4.97;;;4.53;;
22929;SDS011;11630;42.660;23.292;2023-03-01T00:34:21;3.90;;;3.43;;
22929;SDS011;11630;42.660;23.292;2023-03-01T00:36:52;4.73;;;4.30;;
22929;SDS011;11630;42.660;23.292;2023-03-01T00:39:22;4.70;;;4.30;;
22929;SDS011;11630;42.660;23.292;2023-03-01T00:41:53;4.30;;;3.90;;
22929;SDS011;11630;42.660;23.292;2023-03-01T00:44:25;5.63;;;4.40;;
22929;SDS011;11630;42.660;23.292;2023-03-01T00:46:56;4.10;;;3.80;;
22929;SDS011;11630;42.660;23.292;2023-03-01T00:49:27;4.07;;;3.67;;
22929;SDS011;11630;42.660;23.292;2023-03-01T00:51:57;4.77;;;4.17;;
22929;SDS011;11630;42.660;23.292;2023-03-01T00:54:28;4.00;;;3.60;;
22929;SDS011;11630;42.660;23.292;2023-03-01T00:56:59;4.57;;;4.17;;
22929;SDS011;11630;42.660;23.292;2023-03-01T00:59:30;4.13;;;3.73;;
22929;SDS011;11630;42.660;23.292;2023-03-01T01:02:02;4.60;;;4.13;;
22929;SDS011;11630;42.660;23.292;2023-03-01T01:04:33;4.23;;;3.93;;
22929;SDS011;11630;42.660;23.292;2023-03-01T01:07:04;4.33;;;3.97;;
22929;SDS011;11630;42.660;23.292;2023-03-01T01:09:35;4.87;;;4.30;;
22929;SDS011;11630;42.660;23.292;2023-03-01T01:12:05;4.23;;;3.83;;
22929;SDS011;11630;42.660;23.292;2023-03-01T01:14:36;3.80;;;3.50;;
22929;SDS011;11630;42.660;23.292;2023-03-01T01:17:06;4.33;;;3.93;;
22929;SDS011;11630;42.660;23.292;2023-03-01T01:19:38;3.60;;;3.30;;
22929;SDS011;11630;42.660;23.292;2023-03-01T01:22:13;3.60;;;3.30;;
22929;SDS011;11630;42.660;23.292;2023-03-01T01:24:45;3.17;;;2.83;;
22929;SDS011;11630;42.660;23.292;2023-03-01T01:27:15;3.60;;;3.30;;
22929;SDS011;11630;42.660;23.292;2023-03-01T01:29:47;3.93;;;3.20;;
22929;SDS011;11630;42.660;23.292;2023-03-01T01:32:18;2.93;;;2.70;;
22929;SDS011;11630;42.660;23.292;2023-03-01T01:34:49;2.90;;;2.70;;
22929;SDS011;11630;42.660;23.292;2023-03-01T01:37:21;3.20;;;2.90;;
22929;SDS011;11630;42.660;23.292;2023-03-01T01:39:50;3.40;;;2.97;;
22929;SDS011;11630;42.660;23.292;2023-03-01T01:42:20;2.70;;;2.50;;
22929;SDS011;11630;42.660;23.292;2023-03-01T01:48:00;3.37;;;3.10;;
22929;SDS011;11630;42.660;23.292;2023-03-01T01:50:33;2.77;;;2.60;;
22929;SDS011;11630;42.660;23.292;2023-03-01T01:53:09;2.93;;;2.73;;
22929;SDS011;11630;42.660;23.292;2023-03-01T01:55:42;2.60;;;2.40;;
22929;SDS011;11630;42.660;23.292;2023-03-01T01:58:14;2.27;;;2.17;;
22929;SDS011;11630;42.660;23.292;2023-03-01T02:00:46;2.60;;;2.40;;
22929;SDS011;11630;42.660;23.292;2023-03-01T02:03:18;2.43;;;2.23;;
22929;SDS011;11630;42.660;23.292;2023-03-01T02:06:00;2.33;;;2.23;;
22929;SDS011;11630;42.660;23.292;2023-03-01T02:08:30;2.37;;;2.23;;
22929;SDS011;11630;42.660;23.292;2023-03-01T02:11:02;2.07;;;1.97;;
22929;SDS011;11630;42.660;23.292;2023-03-01T02:13:33;2.13;;;2.03;;
22929;SDS011;11630;42.660;23.292;2023-03-01T02:16:05;2.30;;;2.20;;
22929;SDS011;11630;42.660;23.292;2023-03-01T02:18:41;2.30;;;2.20;;
22929;SDS011;11630;42.660;23.292;2023-03-01T02:23:54;2.53;;;2.43;;
22929;SDS011;11630;42.660;23.292;2023-03-01T02:26:36;2.70;;;2.50;;
22929;SDS011;11630;42.660;23.292;2023-03-01T02:29:06;2.67;;;2.50;;
22929;SDS011;11630;42.660;23.292;2023-03-01T02:31:37;3.40;;;3.20;;
22929;SDS011;11630;42.660;23.292;2023-03-01T02:34:14;3.00;;;2.80;;
22929;SDS011;11630;42.660;23.292;2023-03-01T02:36:51;2.50;;;2.30;;
22929;SDS011;11630;42.660;23.292;2023-03-01T02:39:33;2.43;;;2.33;;
22929;SDS011;11630;42.660;23.292;2023-03-01T02:42:02;2.93;;;2.73;;
22929;SDS011;11630;42.660;23.292;2023-03-01T02:44:35;2.97;;;2.77;;
22929;SDS011;11630;42.660;23.292;2023-03-01T02:47:05;3.40;;;3.10;;
22929;SDS011;11630;42.660;23.292;2023-03-01T02:49:36;2.43;;;2.33;;
22929;SDS011;11630;42.660;23.292;2023-03-01T02:55:06;2.77;;;2.60;;
22929;SDS011;11630;42.660;23.292;2023-03-01T02:57:43;2.83;;;2.63;;
22929;SDS011;11630;42.660;23.292;2023-03-01T03:00:17;3.70;;;3.40;;
22929;SDS011;11630;42.660;23.292;2023-03-01T03:02:53;3.53;;;3.27;;
22929;SDS011;11630;42.660;23.292;2023-03-01T03:05:25;4.30;;;3.70;;
22929;SDS011;11630;42.660;23.292;2023-03-01T03:07:57;3.87;;;3.13;;
22929;SDS011;11630;42.660;23.292;2023-03-01T03:10:29;3.33;;;3.13;;
22929;SDS011;11630;42.660;23.292;2023-03-01T03:13:02;4.37;;;3.90;;
22929;SDS011;11630;42.660;23.292;2023-03-01T03:15:35;4.97;;;4.37;;
22929;SDS011;11630;42.660;23.292;2023-03-01T03:18:10;4.67;;;4.27;;
22929;SDS011;11630;42.660;23.292;2023-03-01T03:20:40;4.57;;;4.20;;
22929;SDS011;11630;42.660;23.292;2023-03-01T03:23:15;5.83;;;5.23;;
22929;SDS011;11630;42.660;23.292;2023-03-01T03:25:48;4.90;;;4.40;;
22929;SDS011;11630;42.660;23.292;2023-03-01T03:28:18;5.37;;;4.87;;
22929;SDS011;11630;42.660;23.292;2023-03-01T03:30:49;4.73;;;4.33;;
22929;SDS011;11630;42.660;23.292;2023-03-01T03:33:20;6.27;;;5.77;;
22929;SDS011;11630;42.660;23.292;2023-03-01T03:35:51;5.40;;;4.90;;
22929;SDS011;11630;42.660;23.292;2023-03-01T03:38:22;6.67;;;5.97;;
22929;SDS011;11630;42.660;23.292;2023-03-01T03:41:05;5.60;;;5.10;;
22929;SDS011;11630;42.660;23.292;2023-03-01T03:46:19;6.60;;;5.43;;
22929;SDS011;11630;42.660;23.292;2023-03-01T03:48:50;6.70;;;6.10;;
22929;SDS011;11630;42.660;23.292;2023-03-01T03:51:21;17.40;;;5.67;;
22929;SDS011;11630;42.660;23.292;2023-03-01T03:53:51;7.97;;;6.40;;
22929;SDS011;11630;42.660;23.292;2023-03-01T03:56:22;5.97;;;5.33;;
22929;SDS011;11630;42.660;23.292;2023-03-01T03:58:53;5.97;;;5.43;;
22929;SDS011;11630;42.660;23.292;2023-03-01T04:01:26;5.47;;;4.63;;
22929;SDS011;11630;42.660;23.292;2023-03-01T04:03:56;5.27;;;4.83;;
22929;SDS011;11630;42.660;23.292;2023-03-01T04:06:26;5.40;;;4.20;;
22929;SDS011;11630;42.660;23.292;2023-03-01T04:08:57;4.93;;;4.43;;
22929;SDS011;11630;42.660;23.292;2023-03-01T04:11:29;4.73;;;4.30;;
22929;SDS011;11630;42.660;23.292;2023-03-01T04:14:03;4.97;;;4.37;;
22929;SDS011;11630;42.660;23.292;2023-03-01T04:16:33;4.83;;;3.70;;
22929;SDS011;11630;42.660;23.292;2023-03-01T04:19:05;4.13;;;3.73;;
22929;SDS011;11630;42.660;23.292;2023-03-01T04:21:35;4.83;;;4.43;;
22929;SDS011;11630;42.660;23.292;2023-03-01T04:24:06;3.20;;;2.80;;
22929;SDS011;11630;42.660;23.292;2023-03-01T04:26:37;5.03;;;3.93;;
22929;SDS011;11630;42.660;23.292;2023-03-01T04:29:08;4.47;;;3.90;;
22929;SDS011;11630;42.660;23.292;2023-03-01T04:31:40;4.77;;;4.37;;
22929;SDS011;11630;42.660;23.292;2023-03-01T04:34:10;4.47;;;4.07;;
22929;SDS011;11630;42.660;23.292;2023-03-01T04:36:41;4.67;;;4.27;;
22929;SDS011;11630;42.660;23.292;2023-03-01T04:39:12;5.70;;;4.73;;
22929;SDS011;11630;42.660;23.292;2023-03-01T04:41:43;6.83;;;4.70;;
22929;SDS011;11630;42.660;23.292;2023-03-01T04:44:13;4.90;;;4.40;;
22929;SDS011;11630;42.660;23.292;2023-03-01T04:46:44;7.17;;;4.77;;
22929;SDS011;11630;42.660;23.292;2023-03-01T04:49:15;5.13;;;4.60;;
22929;SDS011;11630;42.660;23.292;2023-03-01T04:51:47;7.43;;;5.13;;
22929;SDS011;11630;42.660;23.292;2023-03-01T04:54:18;5.10;;;4.60;;
22929;SDS011;11630;42.660;23.292;2023-03-01T04:56:49;6.80;;;5.40;;
22929;SDS011;11630;42.660;23.292;2023-03-01T04:59:19;6.73;;;5.30;;
22929;SDS011;11630;42.660;23.292;2023-03-01T05:01:50;6.07;;;5.23;;
22929;SDS011;11630;42.660;23.292;2023-03-01T05:04:22;5.27;;;4.77;;
22929;SDS011;11630;42.660;23.292;2023-03-01T05:06:52;4.93;;;4.50;;
22929;SDS011;11630;42.660;23.292;2023-03-01T05:09:23;5.17;;;4.57;;
22929;SDS011;11630;42.660;23.292;2023-03-01T05:11:54;4.83;;;4.33;;
22929;SDS011;11630;42.660;23.292;2023-03-01T05:14:24;5.47;;;4.57;;
22929;SDS011;11630;42.660;23.292;2023-03-01T05:16:55;6.10;;;4.57;;
22929;SDS011;11630;42.660;23.292;2023-03-01T05:19:27;5.00;;;4.50;;
22929;SDS011;11630;42.660;23.292;2023-03-01T05:21:58;4.77;;;4.27;;
22929;SDS011;11630;42.660;23.292;2023-03-01T05:24:34;5.63;;;4.77;;
22929;SDS011;11630;42.660;23.292;2023-03-01T05:27:05;5.00;;;4.03;;
22929;SDS011;11630;42.660;23.292;2023-03-01T05:29:36;4.87;;;4.00;;
22929;SDS011;11630;42.660;23.292;2023-03-01T05:32:07;5.53;;;5.03;;
22929;SDS011;11630;42.660;23.292;2023-03-01T05:34:38;5.30;;;4.80;;
22929;SDS011;11630;42.660;23.292;2023-03-01T05:37:09;5.33;;;4.80;;
22929;SDS011;11630;42.660;23.292;2023-03-01T05:39:39;4.50;;;4.10;;
22929;SDS011;11630;42.660;23.292;2023-03-01T05:42:10;7.33;;;3.83;;
22929;SDS011;11630;42.660;23.292;2023-03-01T05:44:41;4.10;;;3.70;;
22929;SDS011;11630;42.660;23.292;2023-03-01T05:47:12;4.23;;;3.83;;
22929;SDS011;11630;42.660;23.292;2023-03-01T05:49:42;3.40;;;3.10;;
22929;SDS011;11630;42.660;23.292;2023-03-01T05:52:14;3.93;;;3.63;;
22929;SDS011;11630;42.660;23.292;2023-03-01T05:54:44;3.50;;;3.20;;
22929;SDS011;11630;42.660;23.292;2023-03-01T05:57:15;4.17;;;3.77;;
22929;SDS011;11630;42.660;23.292;2023-03-01T05:59:45;3.77;;;3.47;;
22929;SDS011;11630;42.660;23.292;2023-03-01T06:02:16;3.80;;;3.40;;
22929;SDS011;11630;42.660;23.292;2023-03-01T06:04:47;3.63;;;3.33;;
22929;SDS011;11630;42.660;23.292;2023-03-01T06:07:18;3.60;;;3.30;;
22929;SDS011;11630;42.660;23.292;2023-03-01T06:09:49;3.50;;;3.20;;
22929;SDS011;11630;42.660;23.292;2023-03-01T06:12:19;3.50;;;3.00;;
22929;SDS011;11630;42.660;23.292;2023-03-01T06:14:50;3.87;;;3.30;;
22929;SDS011;11630;42.660;23.292;2023-03-01T06:17:21;4.13;;;3.70;;
22929;SDS011;11630;42.660;23.292;2023-03-01T06:19:52;3.20;;;2.90;;
22929;SDS011;11630;42.660;23.292;2023-03-01T06:22:22;3.60;;;3.30;;
22929;SDS011;11630;42.660;23.292;2023-03-01T06:24:54;4.03;;;3.50;;
22929;SDS011;11630;42.660;23.292;2023-03-01T06:27:24;3.60;;;3.30;;
22929;SDS011;11630;42.660;23.292;2023-03-01T06:29:55;5.47;;;3.90;;
22929;SDS011;11630;42.660;23.292;2023-03-01T06:32:26;5.70;;;3.10;;
22929;SDS011;11630;42.660;23.292;2023-03-01T06:34:57;6.50;;;3.57;;
22929;SDS011;11630;42.660;23.292;2023-03-01T06:37:29;3.83;;;3.53;;
22929;SDS011;11630;42.660;23.292;2023-03-01T06:39:59;3.80;;;2.83;;
22929;SDS011;11630;42.660;23.292;2023-03-01T06:42:30;4.97;;;3.00;;
22929;SDS011;11630;42.660;23.292;2023-03-01T06:45:02;4.07;;;3.50;;
22929;SDS011;11630;42.660;23.292;2023-03-01T06:47:34;5.03;;;4.53;;
22929;SDS011;11630;42.660;23.292;2023-03-01T06:50:05;5.67;;;3.70;;
22929;SDS011;11630;42.660;23.292;2023-03-01T06:52:37;4.57;;;3.30;;
22929;SDS011;11630;42.660;23.292;2023-03-01T06:55:07;5.20;;;3.30;;
22929;SDS011;11630;42.660;23.292;2023-03-01T06:57:39;4.13;;;3.63;;
22929;SDS011;11630;42.660;23.292;2023-03-01T07:00:17;6.77;;;3.57;;
22929;SDS011;11630;42.660;23.292;2023-03-01T07:02:49;3.23;;;3.00;;
22929;SDS011;11630;42.660;23.292;2023-03-01T07:05:20;4.87;;;3.47;;
22929;SDS011;11630;42.660;23.292;2023-03-01T07:07:51;3.67;;;3.07;;
22929;SDS011;11630;42.660;23.292;2023-03-01T07:10:22;7.57;;;2.70;;
22929;SDS011;11630;42.660;23.292;2023-03-01T07:12:54;4.23;;;3.27;;
22929;SDS011;11630;42.660;23.292;2023-03-01T07:15:25;2.93;;;2.73;;
22929;SDS011;11630;42.660;23.292;2023-03-01T07:17:56;6.30;;;3.10;;
22929;SDS011;11630;42.660;23.292;2023-03-01T07:20:27;9.57;;;4.40;;
22929;SDS011;11630;42.660;23.292;2023-03-01T07:22:58;5.00;;;3.80;;
22929;SDS011;11630;42.660;23.292;2023-03-01T07:25:29;5.17;;;3.73;;
22929;SDS011;11630;42.660;23.292;2023-03-01T07:28:00;3.50;;;3.20;;
22929;SDS011;11630;42.660;23.292;2023-03-01T07:30:31;3.40;;;3.03;;
22929;SDS011;11630;42.660;23.292;2023-03-01T07:33:02;3.83;;;3.43;;
22929;SDS011;11630;42.660;23.292;2023-03-01T07:35:33;4.33;;;2.93;;
22929;SDS011;11630;42.660;23.292;2023-03-01T07:38:03;2.73;;;2.50;;
22929;SDS011;11630;42.660;23.292;2023-03-01T07:40:35;7.50;;;3.87;;
22929;SDS011;11630;42.660;23.292;2023-03-01T07:43:06;4.23;;;3.07;;
22929;SDS011;11630;42.660;23.292;2023-03-01T07:45:37;6.67;;;3.67;;
22929;SDS011;11630;42.660;23.292;2023-03-01T07:48:08;4.73;;;3.70;;
22929;SDS011;11630;42.660;23.292;2023-03-01T07:50:38;3.53;;;3.03;;
22929;SDS011;11630;42.660;23.292;2023-03-01T07:53:09;4.80;;;3.50;;
22929;SDS011;11630;42.660;23.292;2023-03-01T07:55:41;7.03;;;3.60;;
22929;SDS011;11630;42.660;23.292;2023-03-01T07:58:12;9.93;;;2.93;;
22929;SDS011;11630;42.660;23.292;2023-03-01T08:00:43;6.10;;;3.23;;
22929;SDS011;11630;42.660;23.292;2023-03-01T08:03:14;12.13;;;4.30;;
22929;SDS011;11630;42.660;23.292;2023-03-01T08:05:45;5.10;;;3.90;;
22929;SDS011;11630;42.660;23.292;2023-03-01T08:08:15;4.43;;;3.70;;
22929;SDS011;11630;42.660;23.292;2023-03-01T08:10:45;4.43;;;3.60;;
22929;SDS011;11630;42.660;23.292;2023-03-01T08:13:16;2.70;;;2.53;;
22929;SDS011;11630;42.660;23.292;2023-03-01T08:15:47;3.67;;;3.37;;
22929;SDS011;11630;42.660;23.292;2023-03-01T08:18:20;3.87;;;3.53;;
22929;SDS011;11630;42.660;23.292;2023-03-01T08:20:51;5.67;;;2.77;;
22929;SDS011;11630;42.660;23.292;2023-03-01T08:23:21;4.30;;;3.63;;
22929;SDS011;11630;42.660;23.292;2023-03-01T08:25:53;4.53;;;4.13;;
22929;SDS011;11630;42.660;23.292;2023-03-01T08:28:24;8.33;;;6.47;;
22929;SDS011;11630;42.660;23.292;2023-03-01T08:30:55;6.20;;;5.60;;
22929;SDS011;11630;42.660;23.292;2023-03-01T08:33:26;8.20;;;6.70;;
22929;SDS011;11630;42.660;23.292;2023-03-01T08:36:03;5.70;;;5.17;;
22929;SDS011;11630;42.660;23.292;2023-03-01T08:38:34;6.13;;;5.53;;
22929;SDS011;11630;42.660;23.292;2023-03-01T08:41:04;7.93;;;4.77;;
22929;SDS011;11630;42.660;23.292;2023-03-01T08:43:36;4.57;;;4.17;;
22929;SDS011;11630;42.660;23.292;2023-03-01T08:46:10;4.93;;;4.33;;
22929;SDS011;11630;42.660;23.292;2023-03-01T08:48:42;4.43;;;3.93;;
22929;SDS011;11630;42.660;23.292;2023-03-01T08:51:14;4.93;;;3.57;;
22929;SDS011;11630;42.660;23.292;2023-03-01T08:53:48;5.17;;;2.93;;
22929;SDS011;11630;42.660;23.292;2023-03-01T08:56:18;18.93;;;6.60;;
22929;SDS011;11630;42.660;23.292;2023-03-01T08:58:49;17.17;;;4.23;;
22929;SDS011;11630;42.660;23.292;2023-03-01T09:01:20;13.17;;;4.33;;
22929;SDS011;11630;42.660;23.292;2023-03-01T09:03:50;12.20;;;4.03;;
22929;SDS011;11630;42.660;23.292;2023-03-01T09:06:19;3.97;;;3.30;;
22929;SDS011;11630;42.660;23.292;2023-03-01T09:08:50;6.13;;;3.73;;
22929;SDS011;11630;42.660;23.292;2023-03-01T09:11:21;7.03;;;3.40;;
22929;SDS011;11630;42.660;23.292;2023-03-01T09:13:52;4.77;;;4.20;;
22929;SDS011;11630;42.660;23.292;2023-03-01T09:16:24;5.13;;;4.63;;
22929;SDS011;11630;42.660;23.292;2023-03-01T09:18:54;4.20;;;3.80;;
22929;SDS011;11630;42.660;23.292;2023-03-01T09:21:26;6.27;;;3.80;;
22929;SDS011;11630;42.660;23.292;2023-03-01T09:23:56;6.43;;;4.13;;
22929;SDS011;11630;42.660;23.292;2023-03-01T09:26:26;5.30;;;4.07;;
22929;SDS011;11630;42.660;23.292;2023-03-01T09:28:56;15.37;;;4.70;;
22929;SDS011;11630;42.660;23.292;2023-03-01T09:31:27;16.50;;;5.53;;
22929;SDS011;11630;42.660;23.292;2023-03-01T09:33:59;76.93;;;13.23;;
22929;SDS011;11630;42.660;23.292;2023-03-01T09:36:29;18.70;;;7.43;;
22929;SDS011;11630;42.660;23.292;2023-03-01T09:39:00;7.30;;;3.97;;
22929;SDS011;11630;42.660;23.292;2023-03-01T09:44:18;3.60;;;3.30;;
22929;SDS011;11630;42.660;23.292;2023-03-01T09:46:50;5.83;;;3.30;;
22929;SDS011;11630;42.660;23.292;2023-03-01T09:49:25;7.23;;;3.50;;
22929;SDS011;11630;42.660;23.292;2023-03-01T09:51:59;6.63;;;3.30;;
22929;SDS011;11630;42.660;23.292;2023-03-01T09:54:46;7.73;;;3.33;;
22929;SDS011;11630;42.660;23.292;2023-03-01T09:57:20;3.23;;;2.90;;
22929;SDS011;11630;42.660;23.292;2023-03-01T10:03:44;6.13;;;3.40;;
22929;SDS011;11630;42.660;23.292;2023-03-01T10:10:59;3.30;;;3.00;;
22929;SDS011;11630;42.660;23.292;2023-03-01T10:13:34;7.97;;;2.53;;
22929;SDS011;11630;42.660;23.292;2023-03-01T10:16:12;4.63;;;2.87;;
22929;SDS011;11630;42.660;23.292;2023-03-01T10:18:46;7.10;;;3.63;;
22929;SDS011;11630;42.660;23.292;2023-03-01T10:21:19;3.90;;;3.33;;
22929;SDS011;11630;42.660;23.292;2023-03-01T10:23:50;9.80;;;3.03;;
22929;SDS011;11630;42.660;23.292;2023-03-01T10:29:13;12.40;;;3.90;;
22929;SDS011;11630;42.660;23.292;2023-03-01T10:31:46;6.37;;;3.40;;
22929;SDS011;11630;42.660;23.292;2023-03-01T10:34:21;5.43;;;3.30;;
22929;SDS011;11630;42.660;23.292;2023-03-01T10:37:01;6.43;;;2.90;;
22929;SDS011;11630;42.660;23.292;2023-03-01T10:39:55;4.13;;;2.93;;
22929;SDS011;11630;42.660;23.292;2023-03-01T10:42:40;5.17;;;3.43;;
22929;SDS011;11630;42.660;23.292;2023-03-01T10:45:33;5.30;;;3.17;;
22929;SDS011;11630;42.660;23.292;2023-03-01T10:48:15;3.30;;;3.00;;
22929;SDS011;11630;42.660;23.292;2023-03-01T10:53:37;5.00;;;3.37;;
22929;SDS011;11630;42.660;23.292;2023-03-01T10:56:12;3.87;;;3.43;;
22929;SDS011;11630;42.660;23.292;2023-03-01T10:59:04;6.23;;;4.03;;
22929;SDS011;11630;42.660;23.292;2023-03-01T11:01:34;4.73;;;3.10;;
22929;SDS011;11630;42.660;23.292;2023-03-01T11:06:41;5.53;;;3.67;;
22929;SDS011;11630;42.660;23.292;2023-03-01T11:09:15;3.43;;;2.93;;
22929;SDS011;11630;42.660;23.292;2023-03-01T11:11:56;5.37;;;4.07;;
22929;SDS011;11630;42.660;23.292;2023-03-01T11:14:33;6.17;;;3.53;;
22929;SDS011;11630;42.660;23.292;2023-03-01T11:19:41;4.93;;;3.90;;
22929;SDS011;11630;42.660;23.292;2023-03-01T11:24:49;4.17;;;3.77;;
22929;SDS011;11630;42.660;23.292;2023-03-01T11:27:28;5.23;;;4.03;;
22929;SDS011;11630;42.660;23.292;2023-03-01T11:30:06;8.80;;;5.13;;
22929;SDS011;11630;42.660;23.292;2023-03-01T11:35:35;10.53;;;5.43;;
22929;SDS011;11630;42.660;23.292;2023-03-01T11:38:40;7.53;;;3.93;;
22929;SDS011;11630;42.660;23.292;2023-03-01T11:43:25;31.13;;;6.97;;
22929;SDS011;11630;42.660;23.292;2023-03-01T12:06:32;7.67;;;5.20;;
22929;SDS011;11630;42.660;23.292;2023-03-01T12:12:21;7.57;;;3.57;;
22929;SDS011;11630;42.660;23.292;2023-03-01T12:17:57;10.60;;;5.63;;
22929;SDS011;11630;42.660;23.292;2023-03-01T12:26:07;8.47;;;7.60;;
22929;SDS011;11630;42.660;23.292;2023-03-01T12:37:44;6.00;;;4.97;;
22929;SDS011;11630;42.660;23.292;2023-03-01T12:40:33;10.97;;;6.00;;
22929;SDS011;11630;42.660;23.292;2023-03-01T12:46:12;7.57;;;5.00;;
22929;SDS011;11630;42.660;23.292;2023-03-01T12:48:59;8.20;;;4.60;;
22929;SDS011;11630;42.660;23.292;2023-03-01T12:51:37;3.97;;;3.63;;
22929;SDS011;11630;42.660;23.292;2023-03-01T12:54:22;7.40;;;4.97;;
22929;SDS011;11630;42.660;23.292;2023-03-01T12:56:45;6.03;;;4.63;;
22929;SDS011;11630;42.660;23.292;2023-03-01T12:59:28;4.60;;;4.20;;
22929;SDS011;11630;42.660;23.292;2023-03-01T13:02:04;5.10;;;4.57;;
22929;SDS011;11630;42.660;23.292;2023-03-01T13:07:21;5.20;;;4.10;;
22929;SDS011;11630;42.660;23.292;2023-03-01T13:09:59;4.53;;;3.70;;
22929;SDS011;11630;42.660;23.292;2023-03-01T13:12:48;5.13;;;4.13;;
22929;SDS011;11630;42.660;23.292;2023-03-01T13:20:49;4.73;;;4.07;;
22929;SDS011;11630;42.660;23.292;2023-03-01T13:23:24;4.13;;;3.77;;
22929;SDS011;11630;42.660;23.292;2023-03-01T13:33:53;4.50;;;4.10;;
22929;SDS011;11630;42.660;23.292;2023-03-01T13:39:05;15.47;;;5.27;;
22929;SDS011;11630;42.660;23.292;2023-03-01T13:41:54;4.73;;;4.33;;
22929;SDS011;11630;42.660;23.292;2023-03-01T13:44:31;5.33;;;4.60;;
22929;SDS011;11630;42.660;23.292;2023-03-01T13:49:51;8.30;;;4.07;;
22929;SDS011;11630;42.660;23.292;2023-03-01T13:52:31;10.27;;;5.30;;
22929;SDS011;11630;42.660;23.292;2023-03-01T13:57:48;5.43;;;3.93;;
22929;SDS011;11630;42.660;23.292;2023-03-01T14:00:41;9.83;;;5.33;;
22929;SDS011;11630;42.660;23.292;2023-03-01T14:03:01;7.07;;;5.43;;
22929;SDS011;11630;42.660;23.292;2023-03-01T14:05:33;5.83;;;5.13;;
22929;SDS011;11630;42.660;23.292;2023-03-01T14:08:04;8.03;;;4.33;;
22929;SDS011;11630;42.660;23.292;2023-03-01T14:10:39;8.80;;;5.23;;
22929;SDS011;11630;42.660;23.292;2023-03-01T14:16:12;7.63;;;5.43;;
22929;SDS011;11630;42.660;23.292;2023-03-01T14:18:47;9.10;;;5.30;;
22929;SDS011;11630;42.660;23.292;2023-03-01T14:21:18;9.17;;;4.80;;
22929;SDS011;11630;42.660;23.292;2023-03-01T14:23:49;11.13;;;6.80;;
22929;SDS011;11630;42.660;23.292;2023-03-01T14:26:21;5.53;;;3.77;;
22929;SDS011;11630;42.660;23.292;2023-03-01T14:28:51;5.77;;;4.40;;
22929;SDS011;11630;42.660;23.292;2023-03-01T14:34:16;7.80;;;5.23;;
22929;SDS011;11630;42.660;23.292;2023-03-01T14:36:49;15.90;;;6.03;;
22929;SDS011;11630;42.660;23.292;2023-03-01T14:39:23;11.07;;;5.17;;
22929;SDS011;11630;42.660;23.292;2023-03-01T14:41:56;8.97;;;5.70;;
22929;SDS011;11630;42.660;23.292;2023-03-01T14:44:31;9.60;;;5.00;;
22929;SDS011;11630;42.660;23.292;2023-03-01T14:47:02;16.80;;;5.23;;
22929;SDS011;11630;42.660;23.292;2023-03-01T14:49:33;13.97;;;6.00;;
22929;SDS011;11630;42.660;23.292;2023-03-01T14:52:06;6.37;;;4.60;;
22929;SDS011;11630;42.660;23.292;2023-03-01T14:54:39;12.73;;;4.83;;
22929;SDS011;11630;42.660;23.292;2023-03-01T14:57:15;5.00;;;4.47;;
22929;SDS011;11630;42.660;23.292;2023-03-01T14:59:52;10.87;;;5.17;;
22929;SDS011;11630;42.660;23.292;2023-03-01T15:02:29;15.20;;;5.17;;
22929;SDS011;11630;42.660;23.292;2023-03-01T15:05:02;10.07;;;5.77;;
22929;SDS011;11630;42.660;23.292;2023-03-01T15:07:36;12.00;;;5.60;;
22929;SDS011;11630;42.660;23.292;2023-03-01T15:10:29;5.70;;;3.73;;
22929;SDS011;11630;42.660;23.292;2023-03-01T15:12:51;5.77;;;3.37;;
22929;SDS011;11630;42.660;23.292;2023-03-01T15:18:00;7.80;;;4.67;;
22929;SDS011;11630;42.660;23.292;2023-03-01T15:20:32;7.27;;;4.63;;
22929;SDS011;11630;42.660;23.292;2023-03-01T15:23:03;5.43;;;4.10;;
22929;SDS011;11630;42.660;23.292;2023-03-01T15:25:34;7.20;;;5.00;;
22929;SDS011;11630;42.660;23.292;2023-03-01T15:28:05;7.73;;;5.10;;
22929;SDS011;11630;42.660;23.292;2023-03-01T15:30:36;12.00;;;5.70;;
22929;SDS011;11630;42.660;23.292;2023-03-01T15:36:00;5.60;;;4.80;;
22929;SDS011;11630;42.660;23.292;2023-03-01T15:41:29;12.53;;;5.63;;
22929;SDS011;11630;42.660;23.292;2023-03-01T15:46:55;7.97;;;5.57;;
22929;SDS011;11630;42.660;23.292;2023-03-01T15:52:11;7.73;;;5.80;;
22929;SDS011;11630;42.660;23.292;2023-03-01T15:54:41;9.80;;;5.83;;
22929;SDS011;11630;42.660;23.292;2023-03-01T15:57:13;6.90;;;6.20;;
22929;SDS011;11630;42.660;23.292;2023-03-01T15:59:43;6.67;;;5.03;;
22929;SDS011;11630;42.660;23.292;2023-03-01T16:02:14;8.67;;;5.70;;
22929;SDS011;11630;42.660;23.292;2023-03-01T16:04:46;6.23;;;4.63;;
22929;SDS011;11630;42.660;23.292;2023-03-01T16:07:18;5.33;;;4.77;;
22929;SDS011;11630;42.660;23.292;2023-03-01T16:09:49;5.77;;;4.37;;
22929;SDS011;11630;42.660;23.292;2023-03-01T16:12:19;8.73;;;5.30;;
22929;SDS011;11630;42.660;23.292;2023-03-01T16:14:51;8.60;;;4.80;;
22929;SDS011;11630;42.660;23.292;2023-03-01T16:17:21;9.83;;;5.00;;
22929;SDS011;11630;42.660;23.292;2023-03-01T16:19:53;7.83;;;4.57;;
22929;SDS011;11630;42.660;23.292;2023-03-01T16:22:24;6.73;;;5.40;;
22929;SDS011;11630;42.660;23.292;2023-03-01T16:24:54;9.40;;;5.90;;
22929;SDS011;11630;42.660;23.292;2023-03-01T16:27:26;7.73;;;5.80;;
22929;SDS011;11630;42.660;23.292;2023-03-01T16:29:57;5.20;;;4.50;;
22929;SDS011;11630;42.660;23.292;2023-03-01T16:32:28;6.47;;;4.43;;
22929;SDS011;11630;42.660;23.292;2023-03-01T16:34:58;9.23;;;4.60;;
22929;SDS011;11630;42.660;23.292;2023-03-01T16:37:29;8.67;;;4.80;;
22929;SDS011;11630;42.660;23.292;2023-03-01T16:40:00;6.70;;;5.20;;
22929;SDS011;11630;42.660;23.292;2023-03-01T16:42:35;7.07;;;5.30;;
22929;SDS011;11630;42.660;23.292;2023-03-01T16:45:07;6.53;;;4.27;;
22929;SDS011;11630;42.660;23.292;2023-03-01T16:47:39;10.93;;;5.73;;
22929;SDS011;11630;42.660;23.292;2023-03-01T16:50:10;8.20;;;5.50;;
22929;SDS011;11630;42.660;23.292;2023-03-01T16:52:41;8.90;;;5.03;;
22929;SDS011;11630;42.660;23.292;2023-03-01T16:55:13;8.10;;;5.50;;
22929;SDS011;11630;42.660;23.292;2023-03-01T16:57:44;8.47;;;5.53;;
22929;SDS011;11630;42.660;23.292;2023-03-01T17:00:15;9.87;;;5.87;;
22929;SDS011;11630;42.660;23.292;2023-03-01T17:02:45;9.50;;;6.00;;
22929;SDS011;11630;42.660;23.292;2023-03-01T17:05:16;9.50;;;6.23;;
22929;SDS011;11630;42.660;23.292;2023-03-01T17:07:46;8.00;;;5.40;;
22929;SDS011;11630;42.660;23.292;2023-03-01T17:10:17;10.37;;;6.13;;
22929;SDS011;11630;42.660;23.292;2023-03-01T17:12:48;5.27;;;4.77;;
22929;SDS011;11630;42.660;23.292;2023-03-01T17:15:18;8.53;;;4.57;;